KSAT/SAT METAR and TAF weather

Enter ICAO airport designator
Station Type Date Time Source
KSAT METAR 2022/05/26 05:51 UTC NOAA

KSAT 260551Z 31004KT 10SM CLR 17/12 A2999 RMK AO2 SLP139 T01720122 10294 20172 403060172 51019


Station Type Date Time Source
KSAT Decoded METAR 2022/05/26 05:51 UTC NOAA

SAN ANTONIO INTERNATIONAL AIRPORT , TX, United States (KSAT) 29-32N 098-28W 243M
May 26, 2022 - 01:51 AM EDT / 2022.05.26 0551 UTC
Wind: from the NW (310 degrees) at 5 MPH (4 KT):0
Visibility: 10 mile(s):0
Sky conditions: clear
Temperature: 63.0 F (17.2 C)
Dew Point: 54.0 F (12.2 C)
Relative Humidity: 72%
Pressure (altimeter): 29.99 in. Hg (1015 hPa)
Pressure tendency: 0.06 inches (1.9 hPa) higher than three hours ago
ob: KSAT 260551Z 31004KT 10SM CLR 17/12 A2999 RMK AO2 SLP139 T01720122 10294 20172 403060172 51019
cycle: 6

Station Type Date Time Source
KSAT TAF 2022/05/26 06:30 UTC NOAA

TAF KSAT 260526Z 2606/2712 VRB03KT P6SM SKC
FM261500 19007KT P6SM SKC

Example: see airport list